Time;durP1;ratioP1;P1;durP2;ratioP2;P2;SDS_P1;SDS_P2;PMS_P1;PMS_P2;Temp;Humidity;BMP_temperature;BMP_pressure;BME280_temperature;BME280_humidity;BME280_pressure;Samples;Min_cycle;Max_cycle;Signal;HPM_P1;HPM_P2
2021/01/04 00:00:39;;;;;;;28.52;20.27;;;;;;;;;;5094230;28;20290;-66
2021/01/04 00:03:08;;;;;;;30.25;19.33;;;;;;;;;;5094147;28;20190;-67
2021/01/04 00:05:40;;;;;;;32.78;20.55;;;;;;;;;;5094088;28;20203;-66
2021/01/04 00:08:22;;;;;;;33.50;23.50;;;;;;;;;;5094083;28;20179;-66
2021/01/04 00:11:04;;;;;;;32.40;20.48;;;;;;;;;;5093905;28;20203;-66
2021/01/04 00:13:49;;;;;;;30.67;19.17;;;;;;;;;;5094080;28;20176;-66
2021/01/04 00:16:19;;;;;;;32.67;19.75;;;;;;;;;;5094301;28;20198;-66
2021/01/04 00:18:47;;;;;;;34.80;21.30;;;;;;;;;;5093870;28;20192;-67
2021/01/04 00:21:33;;;;;;;34.08;19.52;;;;;;;;;;5093528;28;20199;-66
2021/01/04 00:24:05;;;;;;;29.98;17.95;;;;;;;;;;5093860;28;20195;-67
2021/01/04 00:26:50;;;;;;;36.05;21.08;;;;;;;;;;5093924;28;20210;-67
2021/01/04 00:29:19;;;;;;;37.33;20.65;;;;;;;;;;5093816;28;20638;-66
2021/01/04 00:31:48;;;;;;;38.20;20.20;;;;;;;;;;5093677;28;20270;-66
2021/01/04 00:34:18;;;;;;;39.70;21.27;;;;;;;;;;5093747;28;20188;-66
2021/01/04 00:36:49;;;;;;;38.08;20.45;;;;;;;;;;5093787;28;20210;-67
2021/01/04 00:39:31;;;;;;;44.60;22.25;;;;;;;;;;5093638;28;20642;-66
2021/01/04 00:42:08;;;;;;;40.92;22.25;;;;;;;;;;5094002;28;20653;-66
2021/01/04 00:44:43;;;;;;;45.03;22.33;;;;;;;;;;5093664;28;20229;-66
2021/01/04 00:47:20;;;;;;;45.38;23.52;;;;;;;;;;5093740;28;20603;-67
2021/01/04 00:49:50;;;;;;;41.30;22.90;;;;;;;;;;5093901;28;20176;-66
2021/01/04 00:52:34;;;;;;;45.80;21.77;;;;;;;;;;5093535;28;20210;-66
2021/01/04 00:55:19;;;;;;;55.03;24.17;;;;;;;;;;5093441;28;20237;-67
2021/01/04 00:58:09;;;;;;;50.97;24.85;;;;;;;;;;5093608;28;20203;-66
2021/01/04 01:00:42;;;;;;;45.50;23.02;;;;;;;;;;5090446;28;20715;-66
2021/01/04 01:03:27;;;;;;;47.85;24.25;;;;;;;;;;5096623;28;20286;-66
2021/01/04 01:06:00;;;;;;;45.22;23.35;;;;;;;;;;5097234;28;20203;-66
2021/01/04 01:08:34;;;;;;;46.75;24.25;;;;;;;;;;5097547;28;20179;-67
2021/01/04 01:11:02;;;;;;;51.30;25.45;;;;;;;;;;5097312;28;20191;-68
2021/01/04 01:13:34;;;;;;;42.33;23.38;;;;;;;;;;5097617;28;20199;-66
2021/01/04 01:16:06;;;;;;;51.53;24.02;;;;;;;;;;5097629;28;20597;-67
2021/01/04 01:18:35;;;;;;;52.25;24.98;;;;;;;;;;5097666;28;20179;-67
2021/01/04 01:21:03;;;;;;;57.15;24.60;;;;;;;;;;5096072;28;20195;-66
2021/01/04 01:23:30;;;;;;;50.65;22.65;;;;;;;;;;5097151;28;20199;-67
2021/01/04 01:26:02;;;;;;;57.97;24.95;;;;;;;;;;5097146;28;20202;-67
2021/01/04 01:28:42;;;;;;;62.10;25.95;;;;;;;;;;5097172;28;20187;-67
2021/01/04 01:31:11;;;;;;;61.35;24.92;;;;;;;;;;5096932;28;20201;-67
2021/01/04 01:33:38;;;;;;;62.33;23.42;;;;;;;;;;5096978;28;20206;-67
2021/01/04 01:36:13;;;;;;;64.43;24.73;;;;;;;;;;5096929;28;20202;-67
2021/01/04 01:38:49;;;;;;;65.40;25.23;;;;;;;;;;5096952;28;20187;-66
2021/01/04 01:41:26;;;;;;;68.95;25.27;;;;;;;;;;5096912;28;20228;-67
2021/01/04 01:43:56;;;;;;;66.20;27.17;;;;;;;;;;5096689;28;20195;-67
2021/01/04 01:46:29;;;;;;;56.42;23.70;;;;;;;;;;5095497;28;20696;-67
2021/01/04 01:49:16;;;;;;;59.15;25.50;;;;;;;;;;5096724;28;20586;-67
2021/01/04 01:52:01;;;;;;;55.75;25.00;;;;;;;;;;5097181;28;20168;-67
2021/01/04 01:55:03;;;;;;;54.33;24.45;;;;;;;;;;5096654;28;20191;-67
2021/01/04 01:57:48;;;;;;;68.00;27.33;;;;;;;;;;5074659;28;20199;-66
2021/01/04 02:00:16;;;;;;;64.75;25.70;;;;;;;;;;5094575;28;20207;-66
2021/01/04 02:02:51;;;;;;;78.97;26.85;;;;;;;;;;5096614;28;20199;-67
2021/01/04 02:05:21;;;;;;;64.90;26.35;;;;;;;;;;5096775;28;20545;-66
2021/01/04 02:07:52;;;;;;;77.60;26.73;;;;;;;;;;5096705;28;20292;-65
2021/01/04 02:10:25;;;;;;;106.45;26.85;;;;;;;;;;5096477;28;20172;-65
2021/01/04 02:12:57;;;;;;;114.85;28.65;;;;;;;;;;5094952;28;20195;-67
2021/01/04 02:15:30;;;;;;;67.90;26.48;;;;;;;;;;5096845;28;20192;-65
2021/01/04 02:18:16;;;;;;;77.03;27.95;;;;;;;;;;5096061;28;20199;-65
2021/01/04 02:21:07;;;;;;;64.90;25.35;;;;;;;;;;5096363;28;20202;-65
2021/01/04 02:23:39;;;;;;;72.25;26.80;;;;;;;;;;5096541;28;20176;-65
2021/01/04 02:26:17;;;;;;;71.30;27.50;;;;;;;;;;5096213;28;20191;-65
2021/01/04 02:28:52;;;;;;;139.57;29.92;;;;;;;;;;5096153;28;20208;-65
2021/01/04 02:31:19;;;;;;;118.43;28.70;;;;;;;;;;5096441;28;20175;-65
2021/01/04 02:33:49;;;;;;;78.95;27.65;;;;;;;;;;5096028;28;20202;-66
2021/01/04 02:36:16;;;;;;;96.07;32.00;;;;;;;;;;5094410;28;20203;-65
2021/01/04 02:38:47;;;;;;;105.18;32.80;;;;;;;;;;5096766;28;20281;-65
2021/01/04 02:41:14;;;;;;;75.88;29.25;;;;;;;;;;5096002;28;20176;-65
2021/01/04 02:43:41;;;;;;;79.80;29.65;;;;;;;;;;5095691;28;20190;-65
2021/01/04 02:46:11;;;;;;;153.07;31.83;;;;;;;;;;5095653;28;20191;-66
2021/01/04 02:48:48;;;;;;;95.00;30.90;;;;;;;;;;5095301;28;20219;-65
2021/01/04 02:51:23;;;;;;;113.90;30.90;;;;;;;;;;5095423;28;20541;-67
2021/01/04 02:54:04;;;;;;;98.85;30.08;;;;;;;;;;5095361;28;20271;-67
2021/01/04 02:56:40;;;;;;;75.47;28.02;;;;;;;;;;5095408;28;20206;-67
2021/01/04 02:59:15;;;;;;;99.15;29.95;;;;;;;;;;5094250;28;20209;-67
2021/01/04 03:01:57;;;;;;;79.97;30.52;;;;;;;;;;5095279;28;20254;-67
2021/01/04 03:04:25;;;;;;;78.53;28.33;;;;;;;;;;5095384;28;20660;-66
2021/01/04 03:07:01;;;;;;;73.90;27.88;;;;;;;;;;5094966;28;20230;-66
2021/01/04 03:09:31;;;;;;;72.93;29.10;;;;;;;;;;5095171;28;20214;-66
2021/01/04 03:12:04;;;;;;;73.70;28.33;;;;;;;;;;5095238;28;20182;-67
2021/01/04 03:14:48;;;;;;;72.07;28.33;;;;;;;;;;5095028;28;20183;-66
2021/01/04 03:17:24;;;;;;;69.82;27.77;;;;;;;;;;5094933;28;20179;-66
2021/01/04 03:19:53;;;;;;;57.67;27.70;;;;;;;;;;5093444;28;20207;-66
2021/01/04 03:22:20;;;;;;;69.25;27.08;;;;;;;;;;5094975;28;20221;-66
2021/01/04 03:24:48;;;;;;;64.82;26.00;;;;;;;;;;5094600;28;20207;-66
2021/01/04 03:27:17;;;;;;;66.07;28.38;;;;;;;;;;5094683;28;20581;-66
2021/01/04 03:29:43;;;;;;;83.50;31.23;;;;;;;;;;5095625;28;20197;-66
2021/01/04 03:32:10;;;;;;;74.95;27.63;;;;;;;;;;5094494;28;20203;-65
2021/01/04 03:34:38;;;;;;;69.60;28.35;;;;;;;;;;5094614;28;20207;-65
2021/01/04 03:37:10;;;;;;;54.63;26.75;;;;;;;;;;5094846;28;20179;-65
2021/01/04 03:39:36;;;;;;;68.35;28.02;;;;;;;;;;5094729;28;20213;-65
2021/01/04 03:42:04;;;;;;;49.53;23.45;;;;;;;;;;5094730;28;20207;-65
2021/01/04 03:44:31;;;;;;;61.97;25.67;;;;;;;;;;5094810;28;20282;-66
2021/01/04 03:46:58;;;;;;;58.33;27.98;;;;;;;;;;5094494;28;20227;-65
2021/01/04 03:49:27;;;;;;;70.15;29.05;;;;;;;;;;5094571;28;20694;-65
2021/01/04 03:51:58;;;;;;;66.00;30.08;;;;;;;;;;5094226;28;20567;-66
2021/01/04 03:54:28;;;;;;;68.05;29.17;;;;;;;;;;5094583;28;20202;-66
2021/01/04 03:56:55;;;;;;;81.55;30.27;;;;;;;;;;5094342;28;20195;-66
2021/01/04 03:59:23;;;;;;;68.05;29.58;;;;;;;;;;5094161;28;20653;-66
2021/01/04 04:01:51;;;;;;;61.13;29.52;;;;;;;;;;5094069;28;20532;-66
2021/01/04 04:04:18;;;;;;;59.08;30.10;;;;;;;;;;5094910;28;20566;-66
2021/01/04 04:06:46;;;;;;;69.07;30.30;;;;;;;;;;5094068;28;20219;-66
2021/01/04 04:09:16;;;;;;;69.90;33.60;;;;;;;;;;5094078;28;20642;-66
2021/01/04 04:11:43;;;;;;;71.40;31.48;;;;;;;;;;5076077;28;20195;-65
2021/01/04 04:14:10;;;;;;;65.15;31.70;;;;;;;;;;5094088;28;20187;-65
2021/01/04 04:16:37;;;;;;;72.75;31.23;;;;;;;;;;5093037;28;20577;-66
2021/01/04 04:19:04;;;;;;;73.70;33.42;;;;;;;;;;5093998;28;20199;-66
2021/01/04 04:21:31;;;;;;;73.88;33.05;;;;;;;;;;5093764;28;20199;-66
2021/01/04 04:23:57;;;;;;;71.95;34.88;;;;;;;;;;5094162;28;20199;-66
2021/01/04 04:26:26;;;;;;;70.20;31.88;;;;;;;;;;5094024;28;20210;-66
2021/01/04 04:28:53;;;;;;;70.03;33.40;;;;;;;;;;5093649;28;20207;-66
2021/01/04 04:31:20;;;;;;;67.60;33.90;;;;;;;;;;5093734;28;20190;-67
2021/01/04 04:33:50;;;;;;;68.78;34.35;;;;;;;;;;5093683;28;20199;-67
2021/01/04 04:36:21;;;;;;;76.45;34.42;;;;;;;;;;5094827;28;20200;-67
2021/01/04 04:38:48;;;;;;;69.40;35.65;;;;;;;;;;5098103;28;20203;-65
2021/01/04 04:41:25;;;;;;;67.40;34.10;;;;;;;;;;5098449;28;20205;-65
2021/01/04 04:43:52;;;;;;;72.30;36.03;;;;;;;;;;5098144;28;20199;-65
2021/01/04 04:46:39;;;;;;;65.82;33.10;;;;;;;;;;5098401;28;20197;-65
2021/01/04 04:49:10;;;;;;;65.70;36.00;;;;;;;;;;5097891;28;20627;-65
2021/01/04 04:51:56;;;;;;;62.15;32.35;;;;;;;;;;5098869;28;20237;-66
2021/01/04 04:54:29;;;;;;;72.03;36.97;;;;;;;;;;5098242;28;20183;-66
2021/01/04 04:57:04;;;;;;;70.90;35.63;;;;;;;;;;5098066;28;20194;-65
2021/01/04 04:59:38;;;;;;;66.97;33.97;;;;;;;;;;5098283;28;20184;-65
2021/01/04 05:02:23;;;;;;;66.30;37.42;;;;;;;;;;5097897;28;20172;-66
2021/01/04 05:05:00;;;;;;;61.05;34.08;;;;;;;;;;5097995;28;20562;-66
2021/01/04 05:07:36;;;;;;;63.75;34.58;;;;;;;;;;5097710;28;20290;-65
2021/01/04 05:10:11;;;;;;;63.35;34.60;;;;;;;;;;5097939;28;20207;-66
2021/01/04 05:12:45;;;;;;;69.43;35.58;;;;;;;;;;5096630;28;20203;-65
2021/01/04 05:15:32;;;;;;;66.90;34.00;;;;;;;;;;5097386;28;20245;-65
2021/01/04 05:18:17;;;;;;;66.28;35.80;;;;;;;;;;5097184;28;20190;-65
2021/01/04 05:20:54;;;;;;;70.93;35.97;;;;;;;;;;5097107;28;20199;-66
2021/01/04 05:23:30;;;;;;;70.72;39.00;;;;;;;;;;5097357;28;20191;-66
2021/01/04 05:26:18;;;;;;;66.50;34.85;;;;;;;;;;5097344;28;20198;-66
2021/01/04 05:28:54;;;;;;;64.03;32.30;;;;;;;;;;5097188;28;20212;-66
2021/01/04 05:31:39;;;;;;;72.28;35.72;;;;;;;;;;5097147;28;20194;-66
2021/01/04 05:34:13;;;;;;;67.53;35.70;;;;;;;;;;5095720;28;20187;-66
2021/01/04 05:36:43;;;;;;;63.95;31.58;;;;;;;;;;5097014;28;20188;-65
2021/01/04 05:39:22;;;;;;;59.30;30.02;;;;;;;;;;5096731;28;20197;-65
2021/01/04 05:42:07;;;;;;;59.63;32.85;;;;;;;;;;5096722;28;20206;-65
2021/01/04 05:45:09;;;;;;;71.43;36.03;;;;;;;;;;5096548;28;20205;-65
2021/01/04 05:47:54;;;;;;;54.67;30.40;;;;;;;;;;5073498;28;20239;-65
2021/01/04 05:50:38;;;;;;;65.93;31.88;;;;;;;;;;5095726;28;20286;-65
2021/01/04 05:53:07;;;;;;;58.83;31.05;;;;;;;;;;5096467;28;20221;-66
2021/01/04 05:55:36;;;;;;;68.50;32.53;;;;;;;;;;5096386;28;20563;-66
2021/01/04 05:58:18;;;;;;;65.78;31.35;;;;;;;;;;5096473;28;20191;-66
2021/01/04 06:00:46;;;;;;;70.50;32.83;;;;;;;;;;5096448;28;20195;-66
2021/01/04 06:03:18;;;;;;;58.92;29.27;;;;;;;;;;5096413;28;20241;-65
2021/01/04 06:05:47;;;;;;;58.35;31.40;;;;;;;;;;5096366;28;20257;-65
2021/01/04 06:08:25;;;;;;;51.22;27.55;;;;;;;;;;5096606;28;20216;-65
2021/01/04 06:11:10;;;;;;;51.22;27.98;;;;;;;;;;5096870;28;20544;-66
2021/01/04 06:13:42;;;;;;;54.08;30.63;;;;;;;;;;5096242;28;20215;-66
2021/01/04 06:16:17;;;;;;;57.55;29.08;;;;;;;;;;5096620;28;20195;-65
2021/01/04 06:18:46;;;;;;;55.22;28.63;;;;;;;;;;5096338;28;20658;-65
2021/01/04 06:21:19;;;;;;;50.15;28.25;;;;;;;;;;5097052;28;20199;-65
2021/01/04 06:23:46;;;;;;;47.45;25.17;;;;;;;;;;5096606;28;20237;-65
2021/01/04 06:26:19;;;;;;;47.92;23.52;;;;;;;;;;5096320;28;20576;-65
2021/01/04 06:28:54;;;;;;;43.78;23.42;;;;;;;;;;5096211;28;20208;-65
2021/01/04 06:31:31;;;;;;;47.50;25.75;;;;;;;;;;5096754;28;20610;-66
2021/01/04 06:34:00;;;;;;;49.25;26.02;;;;;;;;;;5095896;28;20203;-66
2021/01/04 06:36:27;;;;;;;49.92;25.55;;;;;;;;;;5095373;28;20211;-65
2021/01/04 06:38:55;;;;;;;50.13;26.15;;;;;;;;;;5095960;28;20290;-65
2021/01/04 06:41:29;;;;;;;54.08;26.55;;;;;;;;;;5095966;28;20241;-66
2021/01/04 06:43:57;;;;;;;53.83;29.38;;;;;;;;;;5094491;28;20198;-65
2021/01/04 06:46:41;;;;;;;53.00;26.02;;;;;;;;;;5095782;28;20187;-65
2021/01/04 06:49:17;;;;;;;51.38;26.58;;;;;;;;;;5095605;28;20199;-66
2021/01/04 06:52:04;;;;;;;56.38;28.33;;;;;;;;;;5095518;28;20168;-65
2021/01/04 06:54:51;;;;;;;43.85;24.48;;;;;;;;;;5095350;28;20199;-65
2021/01/04 06:57:29;;;;;;;48.63;25.58;;;;;;;;;;5091636;28;20207;-66
2021/01/04 06:59:55;;;;;;;50.22;26.95;;;;;;;;;;5095062;28;20198;-66
2021/01/04 07:02:32;;;;;;;52.20;26.20;;;;;;;;;;5095332;28;20199;-66
2021/01/04 07:05:19;;;;;;;54.80;29.05;;;;;;;;;;5095284;28;20658;-66
2021/01/04 07:07:54;;;;;;;57.80;30.67;;;;;;;;;;5095161;28;20199;-66
2021/01/04 07:10:28;;;;;;;53.83;25.90;;;;;;;;;;5095146;28;20197;-66
2021/01/04 07:12:57;;;;;;;53.28;27.40;;;;;;;;;;5093973;28;20178;-66
2021/01/04 07:15:29;;;;;;;55.92;28.95;;;;;;;;;;5094766;28;20711;-65
2021/01/04 07:18:02;;;;;;;52.17;26.60;;;;;;;;;;5094941;28;20664;-66
2021/01/04 07:20:40;;;;;;;56.72;26.80;;;;;;;;;;5094834;28;20209;-66
2021/01/04 07:23:07;;;;;;;53.03;27.40;;;;;;;;;;5095060;28;20217;-66
2021/01/04 07:25:42;;;;;;;58.17;27.58;;;;;;;;;;5095051;28;20603;-66
2021/01/04 07:28:16;;;;;;;57.00;28.13;;;;;;;;;;5094999;28;20215;-66
2021/01/04 07:30:47;;;;;;;55.88;27.25;;;;;;;;;;5094741;28;20547;-66
2021/01/04 07:33:28;;;;;;;55.65;29.48;;;;;;;;;;5094879;28;20225;-66
2021/01/04 07:35:55;;;;;;;53.95;26.95;;;;;;;;;;5093118;28;20199;-66
2021/01/04 07:38:27;;;;;;;69.88;30.83;;;;;;;;;;5094379;28;20224;-66
2021/01/04 07:41:05;;;;;;;68.05;30.15;;;;;;;;;;5094544;28;20176;-66
2021/01/04 07:43:51;;;;;;;62.97;29.20;;;;;;;;;;5093231;28;20658;-66
2021/01/04 07:46:38;;;;;;;57.67;29.05;;;;;;;;;;5094446;28;20200;-65
2021/01/04 07:49:11;;;;;;;65.93;27.13;;;;;;;;;;5094102;28;20230;-65
2021/01/04 07:51:40;;;;;;;55.00;27.02;;;;;;;;;;5094481;28;20196;-66
2021/01/04 07:54:13;;;;;;;60.25;26.95;;;;;;;;;;5094537;28;20700;-65
2021/01/04 07:56:58;;;;;;;56.90;26.80;;;;;;;;;;5094507;28;20195;-66
2021/01/04 07:59:28;;;;;;;55.42;27.33;;;;;;;;;;5094116;28;20203;-66
2021/01/04 08:02:15;;;;;;;59.22;28.20;;;;;;;;;;5094228;28;20187;-66
2021/01/04 08:04:53;;;;;;;53.53;21.73;;;;;;;;;;5094400;28;20199;-66
2021/01/04 08:08:00;;;;;;;49.20;26.17;;;;;;;;;;5094187;28;20230;-66
2021/01/04 08:10:40;;;;;;;47.92;25.33;;;;;;;;;;5071589;28;20262;-65
2021/01/04 08:13:27;;;;;;;55.45;27.70;;;;;;;;;;5071765;28;20652;-65
2021/01/04 08:16:01;;;;;;;54.42;26.52;;;;;;;;;;5087741;28;20669;-65
2021/01/04 08:18:30;;;;;;;54.35;27.30;;;;;;;;;;5094255;28;20211;-65
2021/01/04 08:21:00;;;;;;;58.55;28.65;;;;;;;;;;5093872;28;20194;-65
2021/01/04 08:23:40;;;;;;;58.05;27.27;;;;;;;;;;5093939;28;20211;-65
2021/01/04 08:26:23;;;;;;;59.45;30.20;;;;;;;;;;5093947;28;20194;-66
2021/01/04 08:28:53;;;;;;;58.13;27.80;;;;;;;;;;5094183;28;20215;-65
2021/01/04 08:31:22;;;;;;;67.78;30.23;;;;;;;;;;5093901;28;20195;-66
2021/01/04 08:33:51;;;;;;;57.90;27.55;;;;;;;;;;5093620;28;20187;-66
2021/01/04 08:36:20;;;;;;;58.30;29.77;;;;;;;;;;5093609;28;20542;-66
2021/01/04 08:38:47;;;;;;;59.35;26.83;;;;;;;;;;5093501;28;20198;-65
2021/01/04 08:41:20;;;;;;;56.30;27.13;;;;;;;;;;5093239;28;20195;-66
2021/01/04 08:43:49;;;;;;;63.10;28.63;;;;;;;;;;5092975;28;20211;-66
2021/01/04 08:46:19;;;;;;;58.65;25.15;;;;;;;;;;5093162;28;20677;-66
2021/01/04 08:48:46;;;;;;;60.60;28.20;;;;;;;;;;5093126;28;20300;-66
2021/01/04 08:51:15;;;;;;;56.38;28.02;;;;;;;;;;5093252;28;20685;-66
2021/01/04 08:53:51;;;;;;;62.88;29.30;;;;;;;;;;5093447;28;20204;-66
2021/01/04 08:56:26;;;;;;;68.35;30.33;;;;;;;;;;5093525;28;20193;-66
2021/01/04 08:58:53;;;;;;;65.07;28.27;;;;;;;;;;5093513;28;20204;-66
2021/01/04 09:01:24;;;;;;;59.40;28.23;;;;;;;;;;5093450;28;20584;-66
2021/01/04 09:03:51;;;;;;;65.30;29.90;;;;;;;;;;5093338;28;20190;-66
2021/01/04 09:06:23;;;;;;;56.20;26.95;;;;;;;;;;5093192;28;20188;-66
2021/01/04 09:08:53;;;;;;;55.67;26.88;;;;;;;;;;5093410;28;20222;-66
2021/01/04 09:11:20;;;;;;;58.90;27.27;;;;;;;;;;5093141;28;20204;-66
2021/01/04 09:13:47;;;;;;;55.30;27.17;;;;;;;;;;5093263;28;20272;-66
2021/01/04 09:16:29;;;;;;;56.42;25.50;;;;;;;;;;5093439;28;20262;-66
2021/01/04 09:19:10;;;;;;;55.85;28.63;;;;;;;;;;5093350;28;20199;-66
2021/01/04 09:21:39;;;;;;;52.75;25.13;;;;;;;;;;5092150;28;20505;-66
2021/01/04 09:24:09;;;;;;;58.70;27.40;;;;;;;;;;5096969;28;20245;-66
2021/01/04 09:26:40;;;;;;;48.10;25.00;;;;;;;;;;5096956;28;20190;-66
2021/01/04 09:29:12;;;;;;;49.60;24.38;;;;;;;;;;5096722;28;20226;-66
2021/01/04 09:31:50;;;;;;;42.28;23.08;;;;;;;;;;5097098;28;20201;-66
2021/01/04 09:34:19;;;;;;;44.40;22.80;;;;;;;;;;5096342;28;20193;-66
2021/01/04 09:36:49;;;;;;;53.03;25.80;;;;;;;;;;5096595;28;20199;-66
2021/01/04 09:39:24;;;;;;;48.95;25.00;;;;;;;;;;5096702;28;20218;-66
2021/01/04 09:41:56;;;;;;;50.50;25.42;;;;;;;;;;5096643;28;20234;-67
2021/01/04 09:44:23;;;;;;;41.05;22.27;;;;;;;;;;5096723;28;20176;-66
2021/01/04 09:46:53;;;;;;;45.47;22.40;;;;;;;;;;5096644;28;20231;-66
2021/01/04 09:49:31;;;;;;;46.28;25.02;;;;;;;;;;5096340;28;20218;-66
2021/01/04 09:52:01;;;;;;;45.15;24.63;;;;;;;;;;5096449;28;20209;-66
2021/01/04 09:54:57;;;;;;;52.45;25.80;;;;;;;;;;5096407;28;20633;-66
2021/01/04 09:57:25;;;;;;;42.03;23.38;;;;;;;;;;5091688;28;20204;-66
2021/01/04 09:59:53;;;;;;;47.05;25.70;;;;;;;;;;5096391;28;20194;-69
2021/01/04 10:02:31;;;;;;;49.88;25.00;;;;;;;;;;5096453;28;20193;-66
2021/01/04 10:05:04;;;;;;;44.03;23.42;;;;;;;;;;5096206;28;20182;-66
2021/01/04 10:07:33;;;;;;;43.22;24.77;;;;;;;;;;5096053;28;20191;-66
2021/01/04 10:10:01;;;;;;;42.58;24.55;;;;;;;;;;5096172;28;20190;-67
2021/01/04 10:12:28;;;;;;;48.45;25.58;;;;;;;;;;5095497;28;20195;-66
2021/01/04 10:15:02;;;;;;;71.03;31.48;;;;;;;;;;5095727;28;20226;-66
2021/01/04 10:17:40;;;;;;;53.97;27.10;;;;;;;;;;5096280;28;20187;-66
2021/01/04 10:20:24;;;;;;;41.03;21.65;;;;;;;;;;5095742;28;20206;-67
2021/01/04 10:22:51;;;;;;;39.28;23.33;;;;;;;;;;5096048;28;20611;-66
2021/01/04 10:25:23;;;;;;;39.47;23.05;;;;;;;;;;5095305;28;20233;-66
2021/01/04 10:27:54;;;;;;;37.05;22.55;;;;;;;;;;5087477;28;20228;-66
2021/01/04 10:30:22;;;;;;;43.15;24.02;;;;;;;;;;5094952;28;20199;-66
2021/01/04 10:32:48;;;;;;;36.83;23.80;;;;;;;;;;5094949;28;20203;-66
2021/01/04 10:35:19;;;;;;;39.45;23.05;;;;;;;;;;5094001;28;20203;-67
2021/01/04 10:37:50;;;;;;;33.28;21.25;;;;;;;;;;5098905;28;20247;-66
2021/01/04 10:40:22;;;;;;;41.05;22.83;;;;;;;;;;5115672;28;20191;-66
2021/01/04 10:42:59;;;;;;;36.15;22.65;;;;;;;;;;5113927;28;20661;-66
2021/01/04 10:45:35;;;;;;;41.38;23.45;;;;;;;;;;5094688;28;20324;-66
2021/01/04 10:48:08;;;;;;;33.70;21.60;;;;;;;;;;5094236;28;20318;-67
2021/01/04 10:50:35;;;;;;;33.47;20.80;;;;;;;;;;5112720;28;20199;-67
2021/01/04 10:53:06;;;;;;;40.92;23.65;;;;;;;;;;5115236;28;20198;-67
2021/01/04 10:55:35;;;;;;;35.03;25.50;;;;;;;;;;5114883;27;21389;-68
2021/01/04 10:58:11;;;;;;;37.45;23.50;;;;;;;;;;5113372;28;20289;-68
2021/01/04 11:00:44;;;;;;;29.73;20.17;;;;;;;;;;5097361;28;20195;-67
2021/01/04 11:03:15;;;;;;;30.98;21.30;;;;;;;;;;5099481;28;20195;-67
2021/01/04 11:05:43;;;;;;;34.15;20.85;;;;;;;;;;5099738;28;20203;-66
2021/01/04 11:08:18;;;;;;;34.35;21.67;;;;;;;;;;5098064;28;20233;-67
2021/01/04 11:11:12;;;;;;;34.47;20.95;;;;;;;;;;5100027;28;20189;-67
2021/01/04 11:13:39;;;;;;;37.22;22.17;;;;;;;;;;5092546;28;20223;-66
2021/01/04 11:16:11;;;;;;;37.20;23.02;;;;;;;;;;5101429;28;20225;-66
2021/01/04 11:18:48;;;;;;;32.88;21.35;;;;;;;;;;5101496;28;20187;-66
2021/01/04 11:21:34;;;;;;;38.47;22.83;;;;;;;;;;5100805;28;20176;-67
2021/01/04 11:24:01;;;;;;;33.05;20.02;;;;;;;;;;5100271;28;20215;-66
2021/01/04 11:26:27;;;;;;;40.28;21.85;;;;;;;;;;5100449;28;20187;-67
2021/01/04 11:28:57;;;;;;;36.53;22.17;;;;;;;;;;5100758;28;20223;-66
2021/01/04 11:31:30;;;;;;;30.88;20.70;;;;;;;;;;5100575;28;20276;-66
2021/01/04 11:33:57;;;;;;;40.05;23.33;;;;;;;;;;5100426;28;20199;-67
2021/01/04 11:36:23;;;;;;;32.58;21.27;;;;;;;;;;5100338;28;20192;-67
2021/01/04 11:38:50;;;;;;;29.48;19.80;;;;;;;;;;5099633;28;20203;-66
2021/01/04 11:41:17;;;;;;;28.70;18.17;;;;;;;;;;5099215;28;20626;-66
2021/01/04 11:43:45;;;;;;;28.65;18.70;;;;;;;;;;5097957;28;20203;-66
2021/01/04 11:46:12;;;;;;;27.00;19.05;;;;;;;;;;5097592;28;20563;-66
2021/01/04 11:48:39;;;;;;;25.10;17.33;;;;;;;;;;5095669;28;20235;-67
2021/01/04 11:51:05;;;;;;;29.60;19.45;;;;;;;;;;5096373;28;20202;-67
2021/01/04 11:53:34;;;;;;;27.95;19.55;;;;;;;;;;5096950;28;20252;-66
2021/01/04 11:56:01;;;;;;;22.30;15.98;;;;;;;;;;5096875;28;20224;-66
2021/01/04 11:58:28;;;;;;;26.67;18.40;;;;;;;;;;5098053;28;20202;-66
2021/01/04 12:00:55;;;;;;;23.45;15.85;;;;;;;;;;5100652;28;20218;-66
2021/01/04 12:03:22;;;;;;;25.42;18.77;;;;;;;;;;5098792;28;20199;-67
2021/01/04 12:05:51;;;;;;;25.00;18.35;;;;;;;;;;5099659;28;20264;-66
2021/01/04 12:08:17;;;;;;;28.05;18.45;;;;;;;;;;5099174;28;20223;-67
2021/01/04 12:10:44;;;;;;;29.70;19.65;;;;;;;;;;5098868;28;20200;-66
2021/01/04 12:13:11;;;;;;;25.17;17.08;;;;;;;;;;5097547;28;20201;-66
2021/01/04 12:15:37;;;;;;;25.83;18.80;;;;;;;;;;5098154;28;20665;-67
2021/01/04 12:18:04;;;;;;;24.80;16.73;;;;;;;;;;5096400;28;20200;-66
2021/01/04 12:20:36;;;;;;;28.63;19.58;;;;;;;;;;5098445;28;20171;-66
2021/01/04 12:23:02;;;;;;;25.77;18.20;;;;;;;;;;5099728;28;20555;-66
2021/01/04 12:25:29;;;;;;;29.17;19.25;;;;;;;;;;5095390;28;20206;-66
2021/01/04 12:27:56;;;;;;;27.00;18.27;;;;;;;;;;5097962;28;20249;-67
2021/01/04 12:30:22;;;;;;;29.77;17.38;;;;;;;;;;5098976;28;20598;-66
2021/01/04 12:32:49;;;;;;;24.77;17.77;;;;;;;;;;5099408;28;20195;-66
2021/01/04 12:35:18;;;;;;;26.58;18.55;;;;;;;;;;5098203;28;20203;-66
2021/01/04 12:37:44;;;;;;;24.85;17.15;;;;;;;;;;5098836;28;20192;-67
2021/01/04 12:40:12;;;;;;;28.25;18.25;;;;;;;;;;5099179;28;20211;-66
2021/01/04 12:42:42;;;;;;;35.58;19.70;;;;;;;;;;5084661;28;20199;-66
2021/01/04 12:45:09;;;;;;;35.25;20.65;;;;;;;;;;5099339;28;20210;-66
2021/01/04 12:47:37;;;;;;;31.05;19.95;;;;;;;;;;5096707;28;20717;-67
2021/01/04 12:50:05;;;;;;;32.95;20.15;;;;;;;;;;5097607;28;20276;-66
2021/01/04 12:52:32;;;;;;;32.78;18.60;;;;;;;;;;5097830;28;20192;-66
2021/01/04 12:54:58;;;;;;;29.38;17.95;;;;;;;;;;5097569;28;20201;-66
2021/01/04 12:57:30;;;;;;;29.20;18.58;;;;;;;;;;5098231;28;20241;-66
2021/01/04 12:59:57;;;;;;;29.50;19.90;;;;;;;;;;5101243;28;20563;-66
2021/01/04 13:02:24;;;;;;;28.90;18.73;;;;;;;;;;5101325;28;20199;-66
2021/01/04 13:04:50;;;;;;;33.00;19.25;;;;;;;;;;5103254;28;20245;-66
2021/01/04 13:07:17;;;;;;;30.48;20.38;;;;;;;;;;5102195;28;20195;-66
2021/01/04 13:09:44;;;;;;;28.90;17.55;;;;;;;;;;5100631;28;20212;-66
2021/01/04 13:12:11;;;;;;;29.40;18.60;;;;;;;;;;5102726;28;20207;-66
2021/01/04 13:14:41;;;;;;;27.23;18.65;;;;;;;;;;5102938;28;20225;-66
2021/01/04 13:17:07;;;;;;;31.08;19.27;;;;;;;;;;5102039;28;20562;-66
2021/01/04 13:19:34;;;;;;;29.30;19.13;;;;;;;;;;5102722;28;20537;-66
2021/01/04 13:22:01;;;;;;;36.55;20.90;;;;;;;;;;5102442;28;20203;-66
2021/01/04 13:24:31;;;;;;;25.40;18.42;;;;;;;;;;5101320;28;20199;-66
2021/01/04 13:26:58;;;;;;;24.30;17.08;;;;;;;;;;5102219;28;20209;-66
2021/01/04 13:29:26;;;;;;;32.50;19.42;;;;;;;;;;5101945;28;20302;-66
2021/01/04 13:31:59;;;;;;;30.13;19.35;;;;;;;;;;5101436;28;20195;-67
2021/01/04 13:34:26;;;;;;;30.27;19.05;;;;;;;;;;5103289;28;20184;-67
2021/01/04 13:36:52;;;;;;;32.75;18.63;;;;;;;;;;5102143;28;20187;-67
2021/01/04 13:39:19;;;;;;;26.73;18.98;;;;;;;;;;5100845;28;20568;-67
2021/01/04 13:41:53;;;;;;;31.35;19.58;;;;;;;;;;5099553;28;20690;-67
2021/01/04 13:44:20;;;;;;;25.90;18.08;;;;;;;;;;5100224;28;20202;-67
2021/01/04 13:46:46;;;;;;;31.67;19.95;;;;;;;;;;5099844;28;20593;-67
2021/01/04 13:49:14;;;;;;;30.52;19.52;;;;;;;;;;5100571;28;20261;-66
2021/01/04 13:51:48;;;;;;;29.00;16.73;;;;;;;;;;5100309;28;20198;-65
2021/01/04 13:54:17;;;;;;;27.45;17.80;;;;;;;;;;5099945;28;20180;-66
2021/01/04 13:56:52;;;;;;;35.28;20.75;;;;;;;;;;5099872;28;20239;-66
2021/01/04 13:59:21;;;;;;;27.77;18.77;;;;;;;;;;5100808;28;20176;-66
2021/01/04 14:01:47;;;;;;;23.55;14.18;;;;;;;;;;5099407;28;20214;-66
2021/01/04 14:04:15;;;;;;;31.60;18.77;;;;;;;;;;5100654;28;20183;-65
2021/01/04 14:06:45;;;;;;;33.17;18.80;;;;;;;;;;5100813;28;20192;-66
2021/01/04 14:09:15;;;;;;;24.65;17.10;;;;;;;;;;5099130;28;20626;-65
2021/01/04 14:11:43;;;;;;;32.67;19.38;;;;;;;;;;5099462;28;20222;-65
2021/01/04 14:14:09;;;;;;;30.15;18.67;;;;;;;;;;5100273;28;20202;-66
2021/01/04 14:16:37;;;;;;;32.53;19.45;;;;;;;;;;5100012;28;20195;-67
2021/01/04 14:19:04;;;;;;;30.05;17.95;;;;;;;;;;5099430;28;20211;-67
2021/01/04 14:21:30;;;;;;;38.13;20.85;;;;;;;;;;5100821;28;20597;-68
2021/01/04 14:23:58;;;;;;;29.48;19.08;;;;;;;;;;5100801;28;20192;-66
2021/01/04 14:26:27;;;;;;;37.28;19.40;;;;;;;;;;5100518;28;20217;-66
2021/01/04 14:28:54;;;;;;;26.45;17.60;;;;;;;;;;5100515;28;20219;-66
2021/01/04 14:31:22;;;;;;;27.38;16.63;;;;;;;;;;5100907;28;20677;-66
2021/01/04 14:33:49;;;;;;;34.47;17.90;;;;;;;;;;5101914;28;20536;-66
2021/01/04 14:36:16;;;;;;;28.67;18.15;;;;;;;;;;5101494;28;20199;-66
2021/01/04 14:38:46;;;;;;;32.58;17.98;;;;;;;;;;5099624;28;20186;-66
2021/01/04 14:41:13;;;;;;;31.25;18.55;;;;;;;;;;5100746;28;20208;-67
2021/01/04 14:43:40;;;;;;;32.17;18.65;;;;;;;;;;5101286;28;20234;-66
2021/01/04 14:46:06;;;;;;;36.15;19.05;;;;;;;;;;5101429;28;20203;-66